createdAt,value
2018-12-12T00:00:26.352Z,102084.69
2018-12-12T00:02:54.789Z,102089.17
2018-12-12T00:05:38.627Z,102086.58
2018-12-12T00:08:06.973Z,102079.50
2018-12-12T00:10:35.475Z,102081.37
2018-12-12T00:13:03.847Z,102085.05
2018-12-12T00:15:32.502Z,102079.81
2018-12-12T00:18:01.222Z,102089.13
2018-12-12T00:20:29.518Z,102093.61
2018-12-12T00:22:57.908Z,102093.18
2018-12-12T00:25:26.425Z,102091.61
2018-12-12T00:27:54.730Z,102092.34
2018-12-12T00:30:23.348Z,102093.06
2018-12-12T00:32:51.692Z,102098.22
2018-12-12T00:35:20.061Z,102104.52
2018-12-12T00:37:48.490Z,102102.52
2018-12-12T00:40:16.819Z,102107.25
2018-12-12T00:42:45.190Z,102105.92
2018-12-12T00:45:13.622Z,102118.70
2018-12-12T00:47:41.978Z,102117.03
2018-12-12T00:50:10.301Z,102110.28
2018-12-12T00:52:38.661Z,102113.35
2018-12-12T00:55:07.077Z,102123.27
2018-12-12T00:57:35.823Z,102129.59
2018-12-12T01:00:05.830Z,102131.21
2018-12-12T01:02:34.182Z,102126.41
2018-12-12T01:05:02.502Z,102131.05
2018-12-12T01:07:30.902Z,102128.79
2018-12-12T01:09:59.246Z,102132.98
2018-12-12T01:12:27.557Z,102137.73
2018-12-12T01:14:55.870Z,102141.98
2018-12-12T01:17:24.235Z,102148.17
2018-12-12T01:19:52.562Z,102147.36
2018-12-12T01:22:20.971Z,102150.58
2018-12-12T01:24:49.311Z,102153.56
2018-12-12T01:27:17.690Z,102151.77
2018-12-12T01:29:46.011Z,102146.80
2018-12-12T01:32:14.345Z,102155.97
2018-12-12T01:34:42.711Z,102158.01
2018-12-12T01:37:11.191Z,102162.51
2018-12-12T01:39:39.538Z,102164.46
2018-12-12T01:42:07.856Z,102168.82
2018-12-12T01:44:36.356Z,102170.88
2018-12-12T01:47:04.698Z,102175.67
2018-12-12T01:49:33.050Z,102176.75
2018-12-12T01:52:01.407Z,102174.32
2018-12-12T01:54:29.718Z,102174.54
2018-12-12T01:56:58.040Z,102181.66
2018-12-12T01:59:26.551Z,102180.46
2018-12-12T02:01:54.924Z,102176.58
2018-12-12T02:04:23.266Z,102177.12
2018-12-12T02:06:51.728Z,102171.09
2018-12-12T02:09:20.084Z,102178.52
2018-12-12T02:11:48.402Z,102168.77
2018-12-12T02:14:16.725Z,102174.16
2018-12-12T02:16:45.091Z,102168.77
2018-12-12T02:19:13.518Z,102170.77
2018-12-12T02:21:41.969Z,102174.48
2018-12-12T02:24:10.408Z,102179.66
2018-12-12T02:26:38.730Z,102178.58
2018-12-12T02:29:07.287Z,102191.08
2018-12-12T02:31:35.675Z,102189.58
2018-12-12T02:34:04.100Z,102185.20
2018-12-12T02:36:32.501Z,102182.95
2018-12-12T02:39:00.952Z,102179.23
2018-12-12T02:41:29.438Z,102180.14
2018-12-12T02:43:57.823Z,102178.25
2018-12-12T02:46:26.425Z,102178.67
2018-12-12T02:48:54.833Z,102185.17
2018-12-12T02:51:23.645Z,102185.93
2018-12-12T02:53:51.980Z,102187.17
2018-12-12T02:56:20.286Z,102197.66
2018-12-12T02:58:48.617Z,102195.41
2018-12-12T03:01:17.008Z,102196.02
2018-12-12T03:03:45.426Z,102197.27
2018-12-12T03:06:13.756Z,102207.07
2018-12-12T03:08:42.059Z,102203.52
2018-12-12T03:11:10.349Z,102209.66
2018-12-12T03:13:38.900Z,102211.23
2018-12-12T03:16:07.273Z,102218.70
2018-12-12T03:18:35.594Z,102211.88
2018-12-12T03:21:03.929Z,102215.64
2018-12-12T03:23:32.386Z,102222.83
2018-12-12T03:26:00.686Z,102227.05
2018-12-12T03:28:29.012Z,102222.24
2018-12-12T03:30:57.322Z,102216.87
2018-12-12T03:33:25.667Z,102226.58
2018-12-12T03:35:54.268Z,102215.59
2018-12-12T03:38:22.607Z,102217.80
2018-12-12T03:40:51.021Z,102222.39
2018-12-12T03:43:19.347Z,102225.56
2018-12-12T03:45:47.725Z,102221.58
2018-12-12T03:48:16.108Z,102221.31
2018-12-12T03:50:44.546Z,102222.40
2018-12-12T03:53:12.983Z,102221.91
2018-12-12T03:55:41.380Z,102218.84
2018-12-12T03:58:09.993Z,102220.35
2018-12-12T04:00:38.470Z,102218.77
2018-12-12T04:03:06.811Z,102215.97
2018-12-12T04:05:35.239Z,102222.61
2018-12-12T04:08:03.519Z,102233.77
2018-12-12T04:10:31.970Z,102228.49
2018-12-12T04:13:00.330Z,102234.36
2018-12-12T04:15:28.677Z,102229.84
2018-12-12T04:17:57.105Z,102230.85
2018-12-12T04:20:25.514Z,102231.82
2018-12-12T04:22:53.841Z,102227.70
2018-12-12T04:25:22.148Z,102227.77
2018-12-12T04:27:50.519Z,102233.02
2018-12-12T04:30:18.809Z,102236.59
2018-12-12T04:32:47.122Z,102230.95
2018-12-12T04:35:15.467Z,102236.01
2018-12-12T04:37:43.906Z,102245.06
2018-12-12T04:40:12.225Z,102244.00
2018-12-12T04:42:40.778Z,102248.13
2018-12-12T04:45:09.174Z,102243.23
2018-12-12T04:47:37.456Z,102246.45
2018-12-12T04:50:05.880Z,102252.17
2018-12-12T04:52:34.183Z,102243.50
2018-12-12T04:55:04.504Z,102254.66
2018-12-12T04:57:32.941Z,102254.55
2018-12-12T05:00:01.261Z,102253.97
2018-12-12T05:02:29.559Z,102252.45
2018-12-12T05:04:57.962Z,102255.52
2018-12-12T05:07:26.329Z,102252.72
2018-12-12T05:09:54.674Z,102250.06
2018-12-12T05:12:22.995Z,102257.02
2018-12-12T05:14:51.329Z,102259.74
2018-12-12T05:17:19.733Z,102256.42
2018-12-12T05:19:48.062Z,102268.38
2018-12-12T05:22:16.377Z,102265.43
2018-12-12T05:24:44.663Z,102266.47
2018-12-12T05:27:13.455Z,102272.16
2018-12-12T05:29:41.774Z,102271.06
2018-12-12T05:32:10.098Z,102281.97
2018-12-12T05:34:38.425Z,102280.72
2018-12-12T05:37:06.790Z,102282.34
2018-12-12T05:39:35.136Z,102287.14
2018-12-12T05:42:03.438Z,102289.70
2018-12-12T05:44:31.730Z,102285.70
2018-12-12T05:47:00.044Z,102290.79
2018-12-12T05:49:28.569Z,102296.86
2018-12-12T05:51:56.932Z,102293.13
2018-12-12T05:54:25.280Z,102288.58
2018-12-12T05:56:53.585Z,102289.44
2018-12-12T05:59:22.180Z,102294.20
2018-12-12T06:01:50.530Z,102293.72
2018-12-12T06:04:18.865Z,102294.14
2018-12-12T06:06:47.162Z,102301.39
2018-12-12T06:09:15.461Z,102303.63
2018-12-12T06:11:43.955Z,102312.79
2018-12-12T06:14:12.248Z,102307.13
2018-12-12T06:16:40.564Z,102315.61
2018-12-12T06:19:09.003Z,102315.38
2018-12-12T06:21:37.370Z,102318.66
2018-12-12T06:24:05.702Z,102319.31
2018-12-12T06:26:37.286Z,102322.42
2018-12-12T06:29:04.461Z,102321.54
2018-12-12T06:31:32.821Z,102322.69
2018-12-12T06:34:01.243Z,102329.70
2018-12-12T06:36:29.581Z,102332.52
2018-12-12T06:38:58.777Z,102331.39
2018-12-12T06:41:27.078Z,102335.77
2018-12-12T06:43:55.397Z,102336.50
2018-12-12T06:46:23.734Z,102334.73
2018-12-12T06:48:52.081Z,102335.77
2018-12-12T06:51:20.371Z,102344.00
2018-12-12T06:53:48.700Z,102345.14
2018-12-12T06:56:17.337Z,102340.90
2018-12-12T06:58:45.670Z,102350.50
2018-12-12T07:01:13.950Z,102352.99
2018-12-12T07:03:42.293Z,102351.57
2018-12-12T07:06:10.579Z,102353.13
2018-12-12T07:08:38.905Z,102363.01
2018-12-12T07:11:07.265Z,102358.20
2018-12-12T07:13:35.908Z,102365.19
2018-12-12T07:16:04.698Z,102358.91
2018-12-12T07:18:33.167Z,102369.86
2018-12-12T07:21:01.512Z,102365.84
2018-12-12T07:23:29.818Z,102361.80
2018-12-12T07:25:58.169Z,102373.48
2018-12-12T07:28:26.472Z,102369.58
2018-12-12T07:30:54.834Z,102369.71
2018-12-12T07:33:23.204Z,102375.84
2018-12-12T07:35:51.521Z,102375.72
2018-12-12T07:38:19.863Z,102379.96
2018-12-12T07:40:48.281Z,102385.60
2018-12-12T07:43:16.585Z,102378.05
2018-12-12T07:45:44.929Z,102379.37
2018-12-12T07:48:13.282Z,102387.76
2018-12-12T07:50:41.717Z,102383.06
2018-12-12T07:53:10.023Z,102386.69
2018-12-12T07:55:38.341Z,102386.41
2018-12-12T07:58:06.711Z,102389.86
2018-12-12T08:00:35.068Z,102388.75
2018-12-12T08:03:06.339Z,102399.84
2018-12-12T08:05:33.910Z,102402.78
2018-12-12T08:08:02.242Z,102401.81
2018-12-12T08:10:30.640Z,102399.50
2018-12-12T08:12:58.944Z,102402.58
2018-12-12T08:15:27.296Z,102405.38
2018-12-12T08:17:55.629Z,102410.94
2018-12-12T08:20:24.385Z,102411.78
2018-12-12T08:22:53.554Z,102412.98
2018-12-12T08:25:22.497Z,102412.95
2018-12-12T08:27:50.835Z,102416.75
2018-12-12T08:30:19.192Z,102421.59
2018-12-12T08:32:47.546Z,102416.41
2018-12-12T08:35:15.919Z,102416.78
2018-12-12T08:37:44.227Z,102423.86
2018-12-12T08:40:12.606Z,102422.41
2018-12-12T08:42:40.997Z,102417.40
2018-12-12T08:45:09.361Z,102430.27
2018-12-12T08:47:37.741Z,102420.33
2018-12-12T08:50:07.966Z,102426.83
2018-12-12T08:52:36.315Z,102429.91
2018-12-12T08:55:05.250Z,102427.95
2018-12-12T08:57:33.540Z,102427.51
2018-12-12T09:00:01.851Z,102424.98
2018-12-12T09:02:30.160Z,102430.52
2018-12-12T09:04:58.471Z,102422.22
2018-12-12T09:07:26.796Z,102423.14
2018-12-12T09:09:55.244Z,102427.08
2018-12-12T09:12:23.554Z,102436.03
2018-12-12T09:14:51.862Z,102431.81
2018-12-12T09:17:20.201Z,102437.61
2018-12-12T09:19:48.485Z,102438.48
2018-12-12T09:22:16.790Z,102438.89
2018-12-12T09:24:45.131Z,102436.14
2018-12-12T09:27:13.443Z,102439.97
2018-12-12T09:29:41.709Z,102446.78
2018-12-12T09:32:10.400Z,102443.99
2018-12-12T09:34:38.674Z,102450.00
2018-12-12T09:37:07.033Z,102448.91
2018-12-12T09:39:35.335Z,102449.48
2018-12-12T09:42:03.760Z,102451.21
2018-12-12T09:44:32.236Z,102455.86
2018-12-12T09:47:00.582Z,102457.74
2018-12-12T09:49:28.902Z,102454.20
2018-12-12T09:51:57.228Z,102458.73
2018-12-12T09:54:26.064Z,102455.77
2018-12-12T09:56:54.376Z,102459.94
2018-12-12T09:59:22.678Z,102454.05
2018-12-12T10:01:51.023Z,102455.28
2018-12-12T10:04:19.337Z,102459.17
2018-12-12T10:06:47.705Z,102458.42
2018-12-12T10:09:16.055Z,102459.88
2018-12-12T10:11:44.347Z,102461.71
2018-12-12T10:14:12.635Z,102460.25
2018-12-12T10:16:41.112Z,102451.77
2018-12-12T10:19:09.389Z,102453.55
2018-12-12T10:21:37.683Z,102458.25
2018-12-12T10:24:06.041Z,102453.23
2018-12-12T10:26:34.355Z,102455.45
2018-12-12T10:29:02.780Z,102455.55
2018-12-12T10:31:31.178Z,102462.23
2018-12-12T10:33:59.455Z,102457.14
2018-12-12T10:36:27.727Z,102452.20
2018-12-12T10:38:56.126Z,102451.53
2018-12-12T10:41:24.466Z,102461.44
2018-12-12T10:43:52.770Z,102452.05
2018-12-12T10:46:21.075Z,102452.20
2018-12-12T10:48:49.379Z,102457.61
2018-12-12T10:51:17.669Z,102451.38
2018-12-12T10:53:45.984Z,102461.73
2018-12-12T10:56:14.354Z,102459.34
2018-12-12T10:58:42.701Z,102464.30
2018-12-12T11:01:16.740Z,102457.55
2018-12-12T11:03:45.064Z,102461.11
2018-12-12T11:06:13.380Z,102455.06
2018-12-12T11:08:41.778Z,102455.58
2018-12-12T11:11:10.198Z,102456.59
2018-12-12T11:13:38.595Z,102455.70
2018-12-12T11:16:07.086Z,102444.09
2018-12-12T11:18:35.396Z,102447.92
2018-12-12T11:21:03.730Z,102443.61
2018-12-12T11:23:32.489Z,102444.63
2018-12-12T11:26:00.806Z,102440.27
2018-12-12T11:28:29.181Z,102445.53
2018-12-12T11:30:57.526Z,102437.70
2018-12-12T11:33:25.833Z,102437.22
2018-12-12T11:35:54.204Z,102442.27
2018-12-12T11:38:22.592Z,102442.28
2018-12-12T11:40:50.932Z,102436.34
2018-12-12T11:43:19.859Z,102440.52
2018-12-12T11:45:48.286Z,102440.84
2018-12-12T11:48:16.607Z,102441.70
2018-12-12T11:50:44.920Z,102442.32
2018-12-12T11:53:13.327Z,102449.20
2018-12-12T11:55:41.649Z,102447.24
2018-12-12T11:58:09.965Z,102448.10
2018-12-12T12:00:38.299Z,102442.08
2018-12-12T12:03:06.601Z,102439.70
2018-12-12T12:05:34.928Z,102452.34
2018-12-12T12:08:03.686Z,102447.28
2018-12-12T12:10:31.992Z,102448.09
2018-12-12T12:13:00.313Z,102449.95
2018-12-12T12:15:28.636Z,102451.20
2018-12-12T12:17:56.982Z,102436.97
2018-12-12T12:20:25.288Z,102442.98
2018-12-12T12:22:53.613Z,102441.03
2018-12-12T12:25:21.952Z,102439.84
2018-12-12T12:27:50.254Z,102447.19
2018-12-12T12:30:18.949Z,102443.05
2018-12-12T12:32:47.270Z,102447.20
2018-12-12T12:35:15.612Z,102443.03
2018-12-12T12:37:43.918Z,102447.69
2018-12-12T12:40:12.295Z,102438.60
2018-12-12T12:42:40.625Z,102440.16
2018-12-12T12:45:08.999Z,102442.28
2018-12-12T12:47:37.382Z,102438.95
2018-12-12T12:50:07.079Z,102447.03
2018-12-12T12:52:35.734Z,102443.13
2018-12-12T12:55:04.484Z,102444.64
2018-12-12T12:57:33.715Z,102448.27
2018-12-12T13:00:02.094Z,102450.60
2018-12-12T13:02:30.393Z,102440.33
2018-12-12T13:04:58.685Z,102441.02
2018-12-12T13:07:26.997Z,102437.55
2018-12-12T13:09:55.342Z,102439.72
2018-12-12T13:12:23.652Z,102443.51
2018-12-12T13:14:52.182Z,102434.53
2018-12-12T13:17:20.480Z,102426.30
2018-12-12T13:19:48.794Z,102430.59
2018-12-12T13:22:17.102Z,102429.25
2018-12-12T13:24:45.443Z,102430.53
2018-12-12T13:27:13.757Z,102436.64
2018-12-12T13:29:42.098Z,102441.19
2018-12-12T13:32:10.422Z,102439.63
2018-12-12T13:34:38.739Z,102436.55
2018-12-12T13:37:07.169Z,102438.17
2018-12-12T13:39:35.497Z,102441.77
2018-12-12T13:42:03.865Z,102438.72
2018-12-12T13:44:32.204Z,102438.98
2018-12-12T13:47:00.574Z,102440.53
2018-12-12T13:49:29.194Z,102443.14
2018-12-12T13:51:57.572Z,102444.72
2018-12-12T13:54:26.192Z,102443.52
2018-12-12T13:56:54.529Z,102446.83
2018-12-12T13:59:22.914Z,102444.02
2018-12-12T14:01:51.194Z,102448.53
2018-12-12T14:04:22.662Z,102449.19
2018-12-12T14:06:50.023Z,102446.00
2018-12-12T14:09:18.308Z,102438.48
2018-12-12T14:11:46.618Z,102444.42
2018-12-12T14:14:14.971Z,102438.10
2018-12-12T14:16:43.293Z,102449.52
2018-12-12T14:19:11.620Z,102440.27
2018-12-12T14:21:40.120Z,102449.78
2018-12-12T14:24:08.406Z,102438.44
2018-12-12T14:26:36.857Z,102435.58
2018-12-12T14:29:05.264Z,102438.97
2018-12-12T14:31:33.576Z,102438.55
2018-12-12T14:34:02.029Z,102439.95
2018-12-12T14:36:30.406Z,102448.53
2018-12-12T14:38:58.830Z,102446.00
2018-12-12T14:41:27.109Z,102445.40
2018-12-12T14:43:55.925Z,102446.27
2018-12-12T14:46:24.589Z,102448.34
2018-12-12T14:48:53.547Z,102449.16
2018-12-12T14:51:22.387Z,102455.33
2018-12-12T14:53:50.713Z,102449.54
2018-12-12T14:56:19.058Z,102452.55
2018-12-12T14:58:47.447Z,102452.13
2018-12-12T15:01:15.753Z,102454.33
2018-12-12T15:03:44.036Z,102457.45
2018-12-12T15:06:12.642Z,102462.17
2018-12-12T15:08:40.989Z,102457.97
2018-12-12T15:11:09.299Z,102461.94
2018-12-12T15:13:37.637Z,102457.14
2018-12-12T15:16:05.923Z,102456.58
2018-12-12T15:18:34.272Z,102461.64
2018-12-12T15:21:02.600Z,102456.95
2018-12-12T15:23:30.976Z,102456.15
2018-12-12T15:25:59.298Z,102456.68
2018-12-12T15:28:27.964Z,102459.20
2018-12-12T15:30:56.314Z,102467.09
2018-12-12T15:33:24.644Z,102461.28
2018-12-12T15:35:53.037Z,102463.91
2018-12-12T15:38:21.340Z,102455.25
2018-12-12T15:40:49.660Z,102459.00
2018-12-12T15:43:18.068Z,102464.02
2018-12-12T15:45:46.432Z,102465.22
2018-12-12T15:48:14.768Z,102458.27
2018-12-12T15:50:43.354Z,102465.88
2018-12-12T15:53:11.746Z,102456.16
2018-12-12T15:55:40.153Z,102456.89
2018-12-12T15:58:08.552Z,102454.16
2018-12-12T16:00:36.917Z,102467.41
2018-12-12T16:03:05.326Z,102467.47
2018-12-12T16:05:33.703Z,102465.32
2018-12-12T16:08:02.062Z,102459.23
2018-12-12T16:10:30.438Z,102462.28
2018-12-12T16:12:58.887Z,102459.59
2018-12-12T16:15:27.295Z,102457.45
2018-12-12T16:17:55.682Z,102456.09
2018-12-12T16:20:30.412Z,102454.92
2018-12-12T16:23:05.338Z,102451.29
2018-12-12T16:25:40.102Z,102451.19
2018-12-12T16:28:15.283Z,102453.47
2018-12-12T16:30:44.203Z,102451.77
2018-12-12T16:33:12.564Z,102454.16
2018-12-12T16:35:40.893Z,102460.30
2018-12-12T16:38:09.296Z,102466.26
2018-12-12T16:40:37.680Z,102466.12
2018-12-12T16:43:06.026Z,102463.36
2018-12-12T16:45:34.395Z,102459.78
2018-12-12T16:48:02.711Z,102460.39
2018-12-12T16:50:31.150Z,102458.16
2018-12-12T16:52:59.620Z,102459.53
2018-12-12T16:55:27.978Z,102457.19
2018-12-12T16:57:56.371Z,102456.07
2018-12-12T17:00:24.788Z,102462.61
2018-12-12T17:02:53.124Z,102459.12
2018-12-12T17:05:26.050Z,102456.55
2018-12-12T17:07:54.419Z,102465.28
2018-12-12T17:10:22.765Z,102463.14
2018-12-12T17:12:51.108Z,102471.88
2018-12-12T17:15:19.618Z,102473.19
2018-12-12T17:17:48.031Z,102471.84
2018-12-12T17:20:16.347Z,102467.59
2018-12-12T17:22:44.691Z,102466.73
2018-12-12T17:25:13.030Z,102465.17
2018-12-12T17:27:41.416Z,102463.45
2018-12-12T17:30:10.308Z,102457.11
2018-12-12T17:32:38.740Z,102457.47
2018-12-12T17:35:08.981Z,102458.83
2018-12-12T17:37:37.756Z,102456.81
2018-12-12T17:40:06.152Z,102458.11
2018-12-12T17:42:34.483Z,102452.73
2018-12-12T17:45:02.834Z,102460.05
2018-12-12T17:47:31.166Z,102459.65
2018-12-12T17:49:59.497Z,102458.80
2018-12-12T17:52:27.850Z,102461.78
2018-12-12T17:54:56.172Z,102463.03
2018-12-12T17:57:24.515Z,102462.64
2018-12-12T17:59:53.331Z,102459.09
2018-12-12T18:02:21.706Z,102461.59
2018-12-12T18:04:50.069Z,102464.48
2018-12-12T18:07:18.443Z,102469.58
2018-12-12T18:09:46.815Z,102461.78
2018-12-12T18:12:15.194Z,102471.20
2018-12-12T18:14:43.587Z,102466.48
2018-12-12T18:17:12.074Z,102473.70
2018-12-12T18:19:40.442Z,102467.94
2018-12-12T18:22:09.054Z,102467.55
2018-12-12T18:24:37.441Z,102466.38
2018-12-12T18:27:05.913Z,102473.50
2018-12-12T18:29:34.364Z,102475.81
2018-12-12T18:32:02.745Z,102468.18
2018-12-12T18:34:31.141Z,102465.61
2018-12-12T18:36:59.592Z,102465.52
2018-12-12T18:39:27.985Z,102469.08
2018-12-12T18:42:04.261Z,102476.00
2018-12-12T18:44:47.630Z,102477.26
2018-12-12T18:47:16.024Z,102480.44
2018-12-12T18:50:01.185Z,102475.25
2018-12-12T18:52:29.793Z,102473.04
2018-12-12T18:55:04.357Z,102477.94
2018-12-12T18:57:34.191Z,102473.13
2018-12-12T19:00:02.615Z,102471.77
2018-12-12T19:02:30.991Z,102464.86
2018-12-12T19:04:59.440Z,102469.28
2018-12-12T19:07:58.000Z,102469.85
2018-12-12T19:10:54.598Z,102472.71
2018-12-12T19:13:22.972Z,102472.98
2018-12-12T19:15:51.379Z,102466.72
2018-12-12T19:18:20.089Z,102476.34
2018-12-12T19:20:48.483Z,102477.91
2018-12-12T19:23:46.685Z,102473.70
2018-12-12T19:26:43.241Z,102479.08
2018-12-12T19:35:18.126Z,102483.70
2018-12-12T19:37:52.527Z,102490.25
2018-12-12T19:40:27.554Z,102482.75
2018-12-12T19:43:02.417Z,102490.44
2018-12-12T19:45:34.284Z,102493.52
2018-12-12T19:48:02.711Z,102486.21
2018-12-12T19:50:31.088Z,102488.52
2018-12-12T19:53:00.874Z,102481.02
2018-12-12T19:55:35.785Z,102491.88
2018-12-12T19:58:04.170Z,102487.54
2018-12-12T20:00:33.502Z,102487.74
2018-12-12T20:03:08.469Z,102487.94
2018-12-12T20:08:49.291Z,102498.13
2018-12-12T20:11:17.630Z,102490.53
2018-12-12T20:13:47.247Z,102494.57
2018-12-12T20:16:18.826Z,102498.80
2018-12-12T20:18:47.233Z,102499.19
2018-12-12T20:21:30.515Z,102504.27
2018-12-12T20:23:58.829Z,102504.55
2018-12-12T20:26:50.800Z,102502.99
2018-12-12T20:32:18.657Z,102500.59
2018-12-12T20:34:53.080Z,102502.05
2018-12-12T20:37:27.987Z,102505.41
2018-12-12T20:40:03.206Z,102513.57
2018-12-12T20:42:38.078Z,102505.22
2018-12-12T20:45:12.670Z,102510.33
2018-12-12T20:47:47.382Z,102510.63
2018-12-12T20:53:01.868Z,102508.12
2018-12-12T20:55:36.736Z,102501.77
2018-12-12T20:58:12.052Z,102501.56
2018-12-12T21:00:48.186Z,102506.75
2018-12-12T21:03:27.041Z,102505.03
2018-12-12T21:05:55.462Z,102507.88
2018-12-12T21:08:23.865Z,102506.50
2018-12-12T21:11:05.152Z,102512.86
2018-12-12T21:16:52.309Z,102508.60
2018-12-12T21:19:20.645Z,102506.16
2018-12-12T21:21:55.649Z,102504.91
2018-12-12T21:27:29.498Z,102504.59
2018-12-12T21:33:04.975Z,102500.94
2018-12-12T21:38:55.957Z,102502.81
2018-12-12T21:44:28.528Z,102505.39
2018-12-12T21:47:02.808Z,102496.91
2018-12-12T21:49:31.227Z,102500.41
2018-12-12T21:52:25.569Z,102504.51
2018-12-12T22:00:11.091Z,102509.33
2018-12-12T22:02:39.498Z,102497.03
2018-12-12T22:05:08.046Z,102500.67
2018-12-12T22:07:36.739Z,102497.67
2018-12-12T22:10:05.753Z,102494.33
2018-12-12T22:12:34.035Z,102495.35
2018-12-12T22:15:02.423Z,102494.31
2018-12-12T22:17:30.728Z,102496.13
2018-12-12T22:19:59.105Z,102498.56
2018-12-12T22:22:27.588Z,102499.88
2018-12-12T22:24:55.952Z,102509.30
2018-12-12T22:27:24.272Z,102507.84
2018-12-12T22:29:52.860Z,102507.59
2018-12-12T22:32:21.287Z,102508.52
2018-12-12T22:34:49.655Z,102509.49
2018-12-12T22:37:18.025Z,102512.48
2018-12-12T22:39:46.490Z,102507.55
2018-12-12T22:42:14.782Z,102514.09
2018-12-12T22:44:43.085Z,102508.34
2018-12-12T22:47:11.376Z,102512.32
2018-12-12T22:49:39.696Z,102511.14
2018-12-12T22:52:08.210Z,102508.61
2018-12-12T22:54:36.506Z,102503.63
2018-12-12T22:57:04.846Z,102516.12
2018-12-12T22:59:33.170Z,102516.11
2018-12-12T23:02:01.473Z,102514.50
2018-12-12T23:04:29.796Z,102516.77
2018-12-12T23:06:58.135Z,102512.32
2018-12-12T23:09:26.500Z,102520.95
2018-12-12T23:11:54.817Z,102522.18
2018-12-12T23:14:23.362Z,102514.16
2018-12-12T23:16:51.674Z,102519.54
2018-12-12T23:19:19.978Z,102520.59
2018-12-12T23:21:48.350Z,102520.27
2018-12-12T23:24:16.681Z,102523.94
2018-12-12T23:26:45.016Z,102523.45
2018-12-12T23:29:13.349Z,102516.97
2018-12-12T23:31:41.684Z,102518.86
2018-12-12T23:34:09.983Z,102514.64
2018-12-12T23:36:38.500Z,102515.71
2018-12-12T23:39:07.180Z,102514.77
2018-12-12T23:41:35.566Z,102513.98
2018-12-12T23:44:03.949Z,102511.67
2018-12-12T23:46:32.274Z,102509.88
2018-12-12T23:49:00.569Z,102512.66
2018-12-12T23:51:29.159Z,102513.65
2018-12-12T23:53:57.492Z,102515.05
2018-12-12T23:56:26.118Z,102509.47
2018-12-12T23:58:54.498Z,102501.41
